Time;durP1;ratioP1;P1;durP2;ratioP2;P2;SDS_P1;SDS_P2;PMS_P1;PMS_P2;Temp;Humidity;BMP_temperature;BMP_pressure;BME280_temperature;BME280_humidity;BME280_pressure;Samples;Min_cycle;Max_cycle;Signal;HPM_P1;HPM_P2
2023/10/02 00:01:53;;;;;;;14.35;6.50;;;;;;;24.86;45.78;101804.47;5009616;28;20026;-62
2023/10/02 00:04:19;;;;;;;12.52;4.43;;;;;;;24.83;45.68;101802.13;5010092;28;20022;-62
2023/10/02 00:06:50;;;;;;;13.65;5.63;;;;;;;24.83;45.86;101794.75;5010210;28;20487;-61
2023/10/02 00:09:20;;;;;;;13.80;5.20;;;;;;;24.85;45.74;101800.03;4993626;28;20113;-60
2023/10/02 00:11:46;;;;;;;16.15;5.13;;;;;;;24.84;45.72;101801.94;4993770;28;20037;-61
2023/10/02 00:14:18;;;;;;;14.10;5.65;;;;;;;24.81;45.63;101802.34;4978227;28;20038;-62
2023/10/02 00:17:03;;;;;;;15.13;5.80;;;;;;;24.82;45.99;101803.16;4993664;28;20037;-61
2023/10/02 00:19:44;;;;;;;14.77;5.60;;;;;;;24.78;45.65;101802.72;5009362;28;20616;-61
2023/10/02 00:22:34;;;;;;;11.93;5.32;;;;;;;24.75;45.80;101803.09;4995100;28;20081;-61
2023/10/02 00:25:22;;;;;;;17.15;6.10;;;;;;;24.71;46.16;101806.41;4993460;28;20041;-62
2023/10/02 00:27:50;;;;;;;12.85;5.35;;;;;;;24.68;45.93;101796.69;5009528;28;20038;-61
2023/10/02 00:30:16;;;;;;;11.25;5.03;;;;;;;24.65;45.41;101802.56;4993403;28;20092;-61
2023/10/02 00:32:45;;;;;;;9.88;4.70;;;;;;;24.63;46.20;101804.66;4993362;28;20034;-63
2023/10/02 00:35:11;;;;;;;11.25;4.45;;;;;;;24.60;45.60;101799.59;5009616;28;20121;-61
2023/10/02 00:37:52;;;;;;;11.35;4.57;;;;;;;24.57;46.28;101802.72;4976817;28;20077;-62
2023/10/02 00:40:22;;;;;;;12.85;5.30;;;;;;;24.55;45.57;101810.28;4992645;28;20041;-61
2023/10/02 00:43:33;;;;;;;14.20;5.05;;;;;;;24.53;45.98;101817.88;4994290;28;20026;-61
2023/10/02 00:45:49;;;;;;;14.50;4.70;;;;;;;24.50;46.05;101810.03;4993294;28;20034;-61
2023/10/02 00:48:28;;;;;;;14.15;4.68;;;;;;;24.46;46.06;101803.25;4992794;28;20581;-61
2023/10/02 00:50:59;;;;;;;14.18;5.30;;;;;;;24.44;46.38;101793.53;4978378;28;20058;-60
2023/10/02 00:53:48;;;;;;;14.07;5.63;;;;;;;24.38;46.15;101797.03;5009301;28;20062;-61
2023/10/02 00:56:24;;;;;;;11.77;4.80;;;;;;;24.38;45.54;101788.81;4993009;28;20037;-60
2023/10/02 00:59:00;;;;;;;15.98;5.93;;;;;;;24.35;45.83;101790.06;5008328;28;20038;-60
2023/10/02 01:01:31;;;;;;;10.50;4.47;;;;;;;24.31;46.05;101786.03;4993068;28;20037;-59
2023/10/02 01:04:10;;;;;;;13.32;5.25;;;;;;;24.32;45.94;101791.31;4994164;28;20044;-60
2023/10/02 01:09:26;;;;;;;16.55;5.70;;;;;;;24.27;46.12;101781.97;4992392;28;20049;-60
2023/10/02 01:11:53;;;;;;;14.48;5.10;;;;;;;24.29;45.83;101791.69;4976124;28;20114;-59
2023/10/02 01:14:40;;;;;;;12.52;5.30;;;;;;;24.30;46.02;101787.06;4992188;28;20035;-61
2023/10/02 01:17:07;;;;;;;12.57;5.22;;;;;;;24.32;46.24;101795.94;4992375;28;20514;-60
2023/10/02 01:19:52;;;;;;;13.65;5.85;;;;;;;24.33;46.56;101793.03;5008779;28;20509;-60
2023/10/02 01:22:26;;;;;;;12.93;4.97;;;;;;;24.36;46.34;101791.78;4991660;28;20125;-61
2023/10/02 01:27:56;;;;;;;12.25;4.97;;;;;;;24.39;46.58;101796.88;4985011;28;20034;-60
2023/10/02 01:30:23;;;;;;;19.80;6.78;;;;;;;24.42;46.88;101796.47;4992286;28;20030;-60
2023/10/02 01:35:47;;;;;;;15.65;5.40;;;;;;;24.43;46.39;101798.16;5006564;28;20054;-61
2023/10/02 01:38:15;;;;;;;15.82;5.65;;;;;;;24.43;46.71;101789.94;4993406;28;20047;-61
2023/10/02 01:43:43;;;;;;;15.27;5.60;;;;;;;24.40;46.60;101779.38;4972293;28;20092;-61
2023/10/02 01:46:10;;;;;;;14.75;5.20;;;;;;;24.45;46.43;101790.59;4972824;28;20042;-61
2023/10/02 01:48:36;;;;;;;17.10;5.90;;;;;;;24.43;46.56;101784.47;4973029;28;20077;-60
2023/10/02 01:51:20;;;;;;;16.30;6.45;;;;;;;24.47;46.52;101782.19;4940547;28;20038;-60
2023/10/02 01:53:46;;;;;;;13.77;5.78;;;;;;;24.46;46.78;101780.47;4972823;28;20547;-62
2023/10/02 01:56:12;;;;;;;17.20;5.22;;;;;;;24.48;46.80;101773.78;4973606;28;20121;-63
2023/10/02 01:58:41;;;;;;;14.48;5.63;;;;;;;24.50;46.37;101777.16;4972777;28;20035;-60
2023/10/02 02:01:11;;;;;;;15.65;4.80;;;;;;;24.49;46.64;101769.97;4956654;28;20105;-61
2023/10/02 02:03:37;;;;;;;13.50;5.88;;;;;;;24.51;46.65;101767.06;4972955;28;20046;-61
2023/10/02 02:06:08;;;;;;;15.52;6.00;;;;;;;24.52;46.99;101775.06;4972736;28;20031;-61
2023/10/02 02:08:35;;;;;;;16.10;5.50;;;;;;;24.54;47.00;101778.44;4974235;28;20122;-61
2023/10/02 02:11:18;;;;;;;11.13;4.95;;;;;;;24.55;47.10;101774.66;4973039;28;20050;-61
2023/10/02 02:13:53;;;;;;;12.65;5.45;;;;;;;24.56;46.39;101778.25;4973094;28;20129;-61
2023/10/02 02:16:30;;;;;;;18.60;5.75;;;;;;;24.58;46.68;101773.44;4973117;28;20044;-61
2023/10/02 02:18:57;;;;;;;14.68;5.97;;;;;;;24.57;46.67;101767.09;4973505;28;20038;-60
2023/10/02 02:21:24;;;;;;;18.45;5.25;;;;;;;24.56;46.86;101761.81;4973575;28;20146;-61
2023/10/02 02:24:08;;;;;;;14.50;5.97;;;;;;;24.62;47.02;101775.56;4976382;28;20113;-61
2023/10/02 02:26:36;;;;;;;16.73;5.32;;;;;;;24.62;46.65;101770.09;4977128;28;20530;-61
2023/10/02 02:29:02;;;;;;;18.92;5.50;;;;;;;24.63;47.03;101771.78;4959352;28;20043;-61
2023/10/02 02:31:31;;;;;;;16.77;5.57;;;;;;;24.62;46.50;101764.59;4960387;28;20026;-60
2023/10/02 02:34:01;;;;;;;17.27;5.05;;;;;;;24.63;46.98;101765.44;4944567;28;20038;-60
2023/10/02 02:36:27;;;;;;;14.88;5.53;;;;;;;24.62;46.51;101767.34;4976803;28;20025;-60
2023/10/02 02:41:42;;;;;;;17.90;5.70;;;;;;;24.59;46.80;101758.69;4977731;28;20056;-61
2023/10/02 02:44:29;;;;;;;15.93;5.65;;;;;;;24.55;46.55;101752.75;4960344;28;20031;-60
2023/10/02 02:46:53;;;;;;;16.35;6.07;;;;;;;24.55;46.64;101752.75;4977581;28;20031;-60
2023/10/02 02:49:19;;;;;;;17.45;6.55;;;;;;;24.53;46.88;101754.84;4975960;28;20046;-60
2023/10/02 02:51:48;;;;;;;18.35;5.53;;;;;;;24.53;46.65;101757.59;4976239;28;20058;-60
2023/10/02 02:54:14;;;;;;;13.15;5.53;;;;;;;24.49;46.74;101750.78;4960281;28;20046;-60
2023/10/02 02:56:40;;;;;;;13.15;5.15;;;;;;;24.48;46.74;101743.66;4959535;28;20042;-60
2023/10/02 02:59:08;;;;;;;19.90;6.15;;;;;;;24.48;46.31;101746.38;4959634;28;20027;-60
2023/10/02 03:01:33;;;;;;;13.80;5.72;;;;;;;24.47;46.67;101746.56;4976812;28;20031;-61
2023/10/02 03:04:11;;;;;;;14.38;5.75;;;;;;;24.44;46.50;101739.59;4975495;28;20458;-61
2023/10/02 03:06:36;;;;;;;16.35;6.30;;;;;;;24.44;46.67;101741.47;4975686;28;20070;-60
2023/10/02 03:09:05;;;;;;;14.70;6.13;;;;;;;24.41;46.58;101739.97;4975409;28;20035;-61
2023/10/02 03:11:32;;;;;;;19.67;6.03;;;;;;;24.40;46.84;101741.03;4975494;28;20034;-61
2023/10/02 03:14:12;;;;;;;14.65;5.60;;;;;;;24.37;46.95;101741.44;4975450;28;20090;-60
2023/10/02 03:16:38;;;;;;;12.52;5.40;;;;;;;24.34;46.79;101734.44;4960970;28;20035;-61
2023/10/02 03:19:07;;;;;;;15.10;5.82;;;;;;;24.32;46.80;101747.50;4975396;28;20090;-61
2023/10/02 03:21:37;;;;;;;15.45;5.65;;;;;;;24.31;46.80;101739.47;4975581;28;20085;-60
2023/10/02 03:24:04;;;;;;;16.42;6.30;;;;;;;24.28;46.87;101737.13;4975297;28;20503;-60
2023/10/02 03:29:02;;;;;;;14.70;5.78;;;;;;;24.25;46.67;101734.78;4976145;28;20113;-61
2023/10/02 03:31:37;;;;;;;17.75;5.85;;;;;;;24.20;46.72;101738.09;4975042;28;20039;-61
2023/10/02 03:36:54;;;;;;;14.65;5.55;;;;;;;24.15;46.40;101734.25;4974973;28;20081;-61
2023/10/02 03:42:12;;;;;;;14.60;5.53;;;;;;;24.09;47.30;101729.53;4975259;28;20053;-61
2023/10/02 03:44:37;;;;;;;14.95;5.57;;;;;;;24.06;46.63;101718.97;4959702;28;20085;-61
2023/10/02 03:47:03;;;;;;;16.13;6.05;;;;;;;24.03;46.59;101725.69;4942988;28;20039;-61
2023/10/02 03:49:28;;;;;;;18.02;6.15;;;;;;;24.00;46.88;101730.72;4975887;28;20035;-60
2023/10/02 03:51:55;;;;;;;15.88;5.55;;;;;;;23.99;47.24;101718.06;4974550;28;20055;-61
2023/10/02 03:54:21;;;;;;;14.40;5.13;;;;;;;23.93;46.85;101721.56;4958962;28;20039;-63
2023/10/02 03:56:50;;;;;;;14.75;5.57;;;;;;;23.92;47.39;101728.09;4975595;28;20543;-61
2023/10/02 03:59:25;;;;;;;12.63;4.60;;;;;;;23.90;47.05;101724.72;4974661;28;20046;-61
2023/10/02 04:01:51;;;;;;;13.45;5.20;;;;;;;23.88;47.34;101726.78;4975294;28;20039;-60
2023/10/02 04:06:47;;;;;;;15.60;6.38;;;;;;;23.79;46.95;101723.31;4975285;28;20034;-61
2023/10/02 04:09:23;;;;;;;16.83;5.95;;;;;;;23.75;47.25;101717.41;4943046;28;20061;-61
2023/10/02 04:11:50;;;;;;;18.15;5.57;;;;;;;23.73;46.95;101714.00;4944761;28;20125;-61
2023/10/02 04:14:31;;;;;;;12.50;5.45;;;;;;;23.69;47.42;101718.16;4942424;28;20043;-61
2023/10/02 04:17:10;;;;;;;14.93;5.60;;;;;;;23.63;47.40;101713.47;4975422;28;20062;-61
2023/10/02 04:19:40;;;;;;;11.18;5.20;;;;;;;23.58;46.88;101713.19;4974393;28;20050;-61
2023/10/02 04:22:07;;;;;;;13.77;5.00;;;;;;;23.53;46.62;101699.25;4958536;28;20062;-61
2023/10/02 04:24:51;;;;;;;14.75;5.95;;;;;;;23.47;47.15;101700.03;4974005;28;20035;-61
2023/10/02 04:27:18;;;;;;;11.52;5.05;;;;;;;23.46;47.02;101711.13;4959430;28;20043;-61
2023/10/02 04:30:18;;;;;;;13.45;4.85;;;;;;;23.41;47.53;101709.00;4958113;28;20031;-61
2023/10/02 04:32:32;;;;;;;15.55;6.00;;;;;;;23.41;47.47;101714.47;4973651;28;20125;-61
2023/10/02 04:34:57;;;;;;;16.10;5.55;;;;;;;23.39;46.60;101711.06;4958049;28;20049;-61
2023/10/02 04:37:23;;;;;;;15.18;6.25;;;;;;;23.39;47.60;101716.53;4973943;28;20507;-61
2023/10/02 04:42:25;;;;;;;12.63;5.18;;;;;;;23.35;47.62;101715.19;4974547;28;20031;-60
2023/10/02 04:44:56;;;;;;;13.93;4.93;;;;;;;23.34;46.92;101720.84;4957734;28;20110;-61
2023/10/02 04:47:23;;;;;;;16.02;5.57;;;;;;;23.31;47.22;101724.78;4973956;28;20031;-61
2023/10/02 04:52:53;;;;;;;12.27;5.72;;;;;;;23.27;47.64;101722.63;4973595;28;20106;-61
2023/10/02 04:55:14;;;;;;;16.85;5.15;;;;;;;23.22;47.75;101720.50;4974708;28;20490;-60
2023/10/02 04:57:42;;;;;;;14.05;5.80;;;;;;;23.20;46.78;101714.34;4973494;28;20053;-61
2023/10/02 05:00:24;;;;;;;13.90;6.40;;;;;;;23.17;47.17;101712.00;4973413;28;20031;-61
2023/10/02 05:03:09;;;;;;;13.00;5.18;;;;;;;23.12;46.77;101700.78;4959484;28;20045;-60
2023/10/02 05:05:36;;;;;;;14.20;5.60;;;;;;;23.10;46.93;101714.66;4960243;28;20510;-61
2023/10/02 05:08:02;;;;;;;18.95;7.05;;;;;;;23.09;47.73;101717.56;4957417;28;20041;-61
2023/10/02 05:10:28;;;;;;;29.20;10.05;;;;;;;23.08;47.88;101715.88;4974324;28;20426;-61
2023/10/02 05:12:53;;;;;;;16.67;6.82;;;;;;;23.06;47.16;101723.44;4957129;28;20035;-61
2023/10/02 05:15:20;;;;;;;21.95;6.50;;;;;;;23.04;46.74;101717.28;4973070;28;20240;-61
2023/10/02 05:17:46;;;;;;;16.38;5.38;;;;;;;22.98;47.20;101728.97;4974403;28;20415;-60
2023/10/02 05:20:15;;;;;;;21.00;6.78;;;;;;;22.97;47.61;101719.09;4974236;28;20561;-60
2023/10/02 05:22:41;;;;;;;18.58;6.88;;;;;;;22.93;47.15;101717.75;4973446;28;20054;-60
2023/10/02 05:25:07;;;;;;;16.77;5.60;;;;;;;22.88;47.81;101712.84;4973063;28;20027;-60
2023/10/02 05:27:37;;;;;;;22.52;6.63;;;;;;;22.86;47.40;101723.13;4973136;28;20074;-60
2023/10/02 05:30:12;;;;;;;19.52;7.20;;;;;;;22.85;47.69;101720.56;4972649;28;20417;-60
2023/10/02 05:32:38;;;;;;;24.50;9.25;;;;;;;22.83;47.07;101723.50;4973020;28;20507;-60
2023/10/02 05:35:16;;;;;;;18.02;6.85;;;;;;;22.82;48.00;101723.69;4972847;28;20054;-60
2023/10/02 05:37:43;;;;;;;13.40;5.97;;;;;;;22.81;48.09;101733.75;4972956;28;20051;-60
2023/10/02 05:45:47;;;;;;;16.38;5.30;;;;;;;22.78;48.00;101727.84;4974338;28;20093;-61
2023/10/02 05:48:27;;;;;;;14.40;5.32;;;;;;;22.74;46.94;101727.34;4959781;28;20031;-60
2023/10/02 05:50:57;;;;;;;16.33;5.85;;;;;;;22.70;47.20;101734.22;4972725;28;20042;-59
2023/10/02 05:53:34;;;;;;;11.90;4.95;;;;;;;22.69;47.80;101739.88;4972677;28;20046;-60
2023/10/02 05:56:12;;;;;;;13.90;5.28;;;;;;;22.69;48.26;101734.41;4972905;28;20117;-60
2023/10/02 05:58:41;;;;;;;13.38;5.40;;;;;;;22.70;48.03;101736.13;4975774;28;20034;-61
2023/10/02 06:01:18;;;;;;;16.42;6.13;;;;;;;22.71;47.68;101732.34;4976796;28;20133;-61
2023/10/02 06:03:45;;;;;;;17.10;6.68;;;;;;;22.77;47.14;101742.53;4975805;28;20038;-61
2023/10/02 06:06:21;;;;;;;18.60;7.60;;;;;;;22.80;48.25;101733.97;4976579;28;20042;-61
2023/10/02 06:08:56;;;;;;;24.02;7.05;;;;;;;22.83;48.21;101731.72;4961285;28;20103;-61
2023/10/02 06:11:25;;;;;;;16.95;6.93;;;;;;;22.86;47.59;101730.47;4976179;28;20090;-61
2023/10/02 06:14:11;;;;;;;16.98;5.03;;;;;;;22.88;47.71;101732.00;4960650;28;20025;-61
2023/10/02 06:16:41;;;;;;;19.92;6.20;;;;;;;22.95;48.20;101734.78;4976560;28;20031;-60
2023/10/02 06:19:13;;;;;;;16.70;6.53;;;;;;;23.04;47.60;101739.16;4976330;28;20446;-61
2023/10/02 06:21:45;;;;;;;23.10;7.18;;;;;;;23.08;47.65;101732.28;4976357;28;20123;-61
2023/10/02 06:24:21;;;;;;;16.42;6.78;;;;;;;23.16;48.17;101734.91;4976308;28;20447;-61
2023/10/02 06:26:49;;;;;;;15.32;5.60;;;;;;;23.18;47.66;101736.41;4977552;28;20035;-60
2023/10/02 06:29:22;;;;;;;13.07;4.72;;;;;;;23.24;47.25;101743.00;4976152;28;20086;-61
2023/10/02 06:31:51;;;;;;;;;;;;;;;23.28;47.96;101738.88;4977800;28;20039;-60
2023/10/02 06:34:19;;;;;;;15.77;5.75;;;;;;;23.30;47.30;101734.06;4977553;28;20409;-61
2023/10/02 06:36:48;;;;;;;14.82;5.45;;;;;;;23.38;48.04;101741.34;4975986;28;20519;-64
2023/10/02 06:39:21;;;;;;;14.80;5.75;;;;;;;23.44;47.33;101752.38;4976071;28;20038;-61
2023/10/02 06:41:47;;;;;;;19.25;6.47;;;;;;;23.49;47.47;101738.97;4958971;28;20034;-61
2023/10/02 06:44:15;;;;;;;18.38;6.97;;;;;;;23.61;47.48;101748.38;4976077;28;20120;-61
2023/10/02 06:46:53;;;;;;;15.95;5.95;;;;;;;23.70;47.61;101743.66;4975434;28;20582;-61
2023/10/02 06:49:20;;;;;;;18.27;6.68;;;;;;;23.83;47.42;101742.94;4976212;28;20038;-60
2023/10/02 06:51:50;;;;;;;21.52;6.95;;;;;;;23.99;47.52;101740.81;4975949;28;20061;-63
2023/10/02 06:54:19;;;;;;;21.42;7.82;;;;;;;24.14;47.07;101749.00;4976933;28;20063;-63
2023/10/02 06:56:45;;;;;;;21.05;8.07;;;;;;;24.20;47.32;101742.75;4959158;28;20099;-62
2023/10/02 06:59:11;;;;;;;20.60;6.82;;;;;;;24.24;47.46;101747.63;4942689;28;20066;-62
2023/10/02 07:01:36;;;;;;;15.38;6.03;;;;;;;24.38;47.63;101753.22;4975820;28;20121;-61
2023/10/02 07:04:09;;;;;;;21.13;7.22;;;;;;;24.59;47.50;101748.59;4975845;28;20085;-61
2023/10/02 07:06:38;;;;;;;;;;;;;;;24.73;47.05;101750.38;4975191;28;20094;-63
2023/10/02 07:09:13;;;;;;;16.33;6.32;;;;;;;24.91;47.19;101741.66;4993860;28;19937;-64
2023/10/02 07:11:43;;;;;;;15.95;5.15;;;;;;;25.16;46.90;101748.38;4974153;28;20033;-61
2023/10/02 07:14:10;;;;;;;21.60;7.60;;;;;;;25.44;46.78;101748.31;4974520;28;20030;-61
2023/10/02 07:16:36;;;;;;;17.95;6.72;;;;;;;25.71;46.76;101752.88;4975108;28;20122;-62
2023/10/02 07:19:04;;;;;;;19.83;7.10;;;;;;;25.96;46.40;101745.78;4958214;28;20035;-61
2023/10/02 07:21:30;;;;;;;19.33;6.68;;;;;;;26.07;46.55;101743.50;4974080;28;20439;-61
2023/10/02 07:24:02;;;;;;;17.88;7.65;;;;;;;26.34;46.61;101745.25;4973856;28;20031;-62
2023/10/02 07:29:37;;;;;;;15.18;6.25;;;;;;;26.93;45.01;101732.34;4885845;29;20098;-62
2023/10/02 07:32:03;;;;;;;21.30;6.50;;;;;;;27.14;45.39;101729.31;4896656;29;20039;-61
2023/10/02 07:34:29;;;;;;;25.65;8.20;;;;;;;27.39;45.67;101734.09;4896640;29;20043;-61
2023/10/02 07:36:54;;;;;;;19.67;7.10;;;;;;;27.67;44.99;101731.91;4902516;29;20043;-60
2023/10/02 07:39:38;;;;;;;20.75;7.28;;;;;;;27.97;45.36;101743.19;4872230;29;1360608;-61
2023/10/02 07:42:04;;;;;;;21.65;7.25;;;;;;;28.22;44.68;101738.63;4935360;29;20048;-61
2023/10/02 07:44:38;;;;;;;22.50;7.88;;;;;;;28.51;44.29;101740.69;4919130;29;20079;-61
2023/10/02 07:47:10;;;;;;;21.92;6.75;;;;;;;28.79;43.99;101727.31;4920206;29;20637;-62
2023/10/02 07:49:39;;;;;;;23.52;7.82;;;;;;;29.08;44.08;101731.28;4904123;29;20044;-61
2023/10/02 07:52:08;;;;;;;16.55;7.43;;;;;;;29.35;43.40;101727.16;4919248;29;20031;-61
2023/10/02 07:54:45;;;;;;;21.05;8.95;;;;;;;29.65;43.55;101721.66;4903477;29;20508;-61
2023/10/02 07:57:13;;;;;;;21.65;8.07;;;;;;;29.87;43.36;101730.34;4920674;29;20400;-61
2023/10/02 07:59:43;;;;;;;20.98;7.90;;;;;;;29.98;43.03;101738.66;4949682;28;20505;-64
2023/10/02 08:02:24;;;;;;;18.80;7.28;;;;;;;30.06;42.67;101734.75;4995014;28;20065;-63
2023/10/02 08:04:51;;;;;;;18.52;7.72;;;;;;;30.19;42.48;101726.25;4995029;28;20038;-62
2023/10/02 08:07:20;;;;;;;17.88;6.68;;;;;;;30.34;42.25;101726.66;4994731;28;20394;-62
2023/10/02 08:09:48;;;;;;;16.70;7.70;;;;;;;30.56;42.22;101733.31;4993019;28;20077;-63
2023/10/02 08:12:30;;;;;;;21.25;8.27;;;;;;;30.77;41.74;101728.25;4994427;28;20026;-62
2023/10/02 08:15:01;;;;;;;16.20;7.43;;;;;;;30.96;41.76;101724.34;4979286;28;20035;-63
2023/10/02 08:20:19;;;;;;;24.67;8.13;;;;;;;31.42;41.31;101724.25;4994114;28;20050;-64
2023/10/02 08:22:44;;;;;;;23.08;7.90;;;;;;;31.50;40.88;101717.50;4993184;28;20026;-62
2023/10/02 08:25:13;;;;;;;18.33;7.38;;;;;;;31.54;40.72;101725.09;4993431;28;20034;-63
2023/10/02 08:27:55;;;;;;;18.40;7.80;;;;;;;31.72;40.83;101718.50;5009086;28;20108;-63
2023/10/02 08:30:29;;;;;;;15.48;7.70;;;;;;;31.94;40.18;101726.97;4993060;28;20089;-62
2023/10/02 08:33:08;;;;;;;21.15;7.90;;;;;;;32.17;40.05;101730.50;4977648;28;20031;-62
2023/10/02 08:35:37;;;;;;;20.38;7.50;;;;;;;32.41;39.44;101725.66;4993052;28;20038;-62
2023/10/02 08:38:07;;;;;;;17.80;7.50;;;;;;;32.63;39.01;101718.28;4994321;28;20466;-62
2023/10/02 08:40:33;;;;;;;18.42;6.72;;;;;;;32.86;39.11;101711.66;4992709;28;20042;-62
2023/10/02 08:42:58;;;;;;;16.20;7.32;;;;;;;33.06;38.77;101709.22;4993100;28;20026;-62
2023/10/02 08:45:24;;;;;;;21.30;8.07;;;;;;;33.29;38.73;101717.31;4992935;28;20056;-62
2023/10/02 08:47:49;;;;;;;20.00;7.97;;;;;;;33.50;38.37;101701.75;4976758;28;20544;-64
2023/10/02 08:50:16;;;;;;;20.92;9.18;;;;;;;33.69;38.42;101710.59;4992664;28;20037;-63
2023/10/02 08:52:47;;;;;;;19.02;7.47;;;;;;;33.93;37.10;101710.03;4992683;28;20042;-63
2023/10/02 08:55:36;;;;;;;21.35;8.02;;;;;;;34.19;36.55;101718.66;5008413;28;20026;-63
2023/10/02 08:58:15;;;;;;;21.83;9.18;;;;;;;34.37;37.24;101709.91;4992709;28;20038;-62
2023/10/02 09:03:42;;;;;;;24.02;8.00;;;;;;;34.67;36.44;101712.97;5007556;28;20498;-61
2023/10/02 09:06:25;;;;;;;;;;;;;;;34.87;36.64;101710.28;4994269;28;20069;-63
2023/10/02 09:11:35;;;;;;;18.05;8.05;;;;;;;35.04;35.50;101694.25;4993582;28;20089;-63
2023/10/02 09:17:07;;;;;;;17.38;7.82;;;;;;;35.21;35.24;101691.28;4992517;28;20068;-65
2023/10/02 09:19:37;;;;;;;17.60;7.45;;;;;;;35.44;35.45;101692.78;4960998;28;20031;-61
2023/10/02 09:22:12;;;;;;;15.45;7.05;;;;;;;35.91;34.25;101699.06;4972917;28;20039;-62
2023/10/02 09:24:41;;;;;;;21.70;8.32;;;;;;;36.50;34.04;101698.59;4957927;28;20038;-63
2023/10/02 09:27:23;;;;;;;19.02;7.82;;;;;;;38.06;30.93;101697.19;4989195;28;20126;-62
2023/10/02 09:30:16;;;;;;;19.55;8.25;;;;;;;38.11;31.12;101694.38;4990514;28;20081;-62
2023/10/02 09:32:49;;;;;;;17.42;7.85;;;;;;;37.73;31.69;101693.19;4972865;28;20029;-63
2023/10/02 09:38:06;;;;;;;15.85;7.47;;;;;;;37.61;32.77;101689.91;4974044;28;20114;-63
2023/10/02 09:40:54;;;;;;;23.23;8.00;;;;;;;37.53;31.62;101696.94;5005179;28;20035;-63
2023/10/02 09:43:24;;;;;;;14.68;7.60;;;;;;;37.52;32.58;101702.84;4972808;28;20128;-64
2023/10/02 09:45:58;;;;;;;24.08;8.65;;;;;;;37.73;31.95;101701.59;4972545;28;20035;-63
2023/10/02 09:51:25;;;;;;;18.90;8.00;;;;;;;38.17;31.85;101698.78;4973727;28;20061;-63
2023/10/02 09:54:13;;;;;;;17.65;8.18;;;;;;;38.22;32.03;101690.38;4973488;28;20121;-63
2023/10/02 09:57:04;;;;;;;19.33;8.38;;;;;;;38.42;30.60;101702.25;4972860;28;20063;-61
2023/10/02 09:59:37;;;;;;;20.27;8.10;;;;;;;38.74;30.20;101684.84;4972752;28;20514;-63
2023/10/02 10:08:33;;;;;;;17.92;8.02;;;;;;;39.20;30.18;101668.38;4971202;28;20065;-61
2023/10/02 10:10:49;;;;;;;18.88;8.25;;;;;;;39.45;29.70;101668.03;4985844;28;20081;-63
2023/10/02 10:13:36;;;;;;;18.77;7.68;;;;;;;39.66;29.57;101670.59;4991686;28;20061;-63
2023/10/02 10:16:20;;;;;;;21.70;8.88;;;;;;;39.85;29.15;101674.22;4992001;28;20037;-63
2023/10/02 10:21:57;;;;;;;18.05;7.70;;;;;;;40.04;29.27;101677.84;4993070;28;20049;-62
2023/10/02 10:27:43;;;;;;;16.38;8.30;;;;;;;40.24;29.20;101671.06;4991896;28;20040;-60
2023/10/02 10:30:33;;;;;;;18.63;7.90;;;;;;;40.42;28.38;101676.66;4991184;28;20101;-62
2023/10/02 10:35:51;;;;;;;22.35;8.35;;;;;;;40.96;27.78;101661.88;4993107;28;20406;-63
2023/10/02 10:38:26;;;;;;;19.27;8.07;;;;;;;41.15;28.08;101671.03;4991646;28;20561;-62
2023/10/02 10:40:55;;;;;;;24.08;8.55;;;;;;;41.32;27.64;101662.00;5007544;28;20042;-62
2023/10/02 10:43:26;;;;;;;19.13;9.55;;;;;;;41.40;27.34;101661.25;4992370;28;20035;-63
2023/10/02 10:45:54;;;;;;;21.35;8.30;;;;;;;41.53;27.54;101663.22;4995535;28;20026;-63
2023/10/02 10:48:23;;;;;;;16.85;7.88;;;;;;;41.65;27.25;101657.88;4995191;28;20529;-61
2023/10/02 10:50:57;;;;;;;18.13;8.85;;;;;;;41.86;27.38;101651.75;4994997;28;20114;-62
2023/10/02 10:53:26;;;;;;;17.75;8.73;;;;;;;42.16;26.76;101651.84;4995093;28;20110;-61
2023/10/02 10:55:55;;;;;;;23.35;9.40;;;;;;;42.48;26.87;101652.69;4994867;28;20054;-62
2023/10/02 10:58:33;;;;;;;17.40;8.40;;;;;;;42.74;26.18;101646.09;4994885;28;20034;-62
2023/10/02 11:01:13;;;;;;;17.25;8.55;;;;;;;42.57;26.84;101656.44;4995036;28;20446;-62
2023/10/02 11:03:38;;;;;;;15.65;8.27;;;;;;;42.43;26.82;101645.22;4994905;28;20402;-61
2023/10/02 11:06:04;;;;;;;17.95;8.07;;;;;;;42.52;26.86;101643.28;4994616;28;20031;-63
2023/10/02 11:08:33;;;;;;;19.65;8.98;;;;;;;41.93;27.07;101635.25;5011110;28;20045;-63
2023/10/02 11:11:11;;;;;;;21.25;7.15;;;;;;;41.53;26.99;101648.28;4994565;28;20034;-61
2023/10/02 11:14:00;;;;;;;18.77;8.70;;;;;;;41.08;27.28;101644.47;4994347;28;20066;-63
2023/10/02 11:16:37;;;;;;;15.50;7.72;;;;;;;40.58;27.51;101637.88;4994490;28;20035;-62
2023/10/02 11:19:21;;;;;;;20.58;8.07;;;;;;;40.30;27.97;101642.59;4994263;28;20046;-62
2023/10/02 11:22:14;;;;;;;15.18;7.35;;;;;;;39.93;28.75;101639.84;4988888;28;20125;-63
2023/10/02 11:24:43;;;;;;;15.95;7.82;;;;;;;39.56;28.44;101644.31;4976135;28;20045;-62
2023/10/02 11:27:14;;;;;;;17.85;8.35;;;;;;;39.32;29.00;101637.09;4976144;28;20039;-64
2023/10/02 11:29:43;;;;;;;16.55;7.90;;;;;;;39.16;29.05;101633.63;4975020;28;20041;-62
2023/10/02 11:32:24;;;;;;;18.35;7.70;;;;;;;38.88;29.75;101627.00;4976166;28;20031;-63
2023/10/02 11:35:03;;;;;;;20.40;7.57;;;;;;;38.59;29.82;101622.50;4960625;28;20027;-63
2023/10/02 11:37:28;;;;;;;18.90;7.78;;;;;;;38.34;29.83;101620.81;4960038;28;20499;-63
2023/10/02 11:39:55;;;;;;;19.25;7.97;;;;;;;38.14;29.76;101619.00;4974618;28;20050;-63
2023/10/02 11:42:22;;;;;;;19.63;8.25;;;;;;;38.15;29.98;101620.69;4974708;28;20039;-63
2023/10/02 11:44:47;;;;;;;18.80;7.88;;;;;;;38.32;29.62;101618.34;4974571;28;20030;-63
2023/10/02 11:47:13;;;;;;;18.33;8.45;;;;;;;38.56;29.84;101611.94;4974845;28;20113;-64
2023/10/02 11:49:39;;;;;;;16.88;7.53;;;;;;;38.69;28.90;101611.22;4974513;28;20402;-64
2023/10/02 11:52:05;;;;;;;20.15;8.57;;;;;;;38.85;29.24;101609.94;4974226;28;20476;-63
2023/10/02 11:54:40;;;;;;;18.63;8.55;;;;;;;39.03;28.98;101611.09;4957450;28;20037;-63
2023/10/02 11:57:10;;;;;;;16.90;8.07;;;;;;;38.94;28.83;101602.53;4974301;28;20037;-63
2023/10/02 11:59:41;;;;;;;17.00;7.63;;;;;;;38.99;29.68;101599.66;4958163;28;20052;-62
2023/10/02 12:02:10;;;;;;;17.75;8.43;;;;;;;38.92;28.89;101587.97;4974406;28;20436;-64
2023/10/02 12:04:36;;;;;;;17.05;7.38;;;;;;;38.61;29.35;101597.88;4974383;28;20097;-63
2023/10/02 12:07:02;;;;;;;18.40;7.30;;;;;;;38.40;29.01;101592.47;4974371;28;20035;-64
2023/10/02 12:09:27;;;;;;;17.58;7.65;;;;;;;38.21;29.82;101591.53;4957912;28;20039;-63
2023/10/02 12:11:53;;;;;;;19.83;8.60;;;;;;;38.09;29.47;101595.84;4974007;28;20459;-63
2023/10/02 12:14:18;;;;;;;18.58;7.47;;;;;;;37.93;29.77;101589.56;4973740;28;20104;-64
2023/10/02 12:16:44;;;;;;;19.90;8.65;;;;;;;37.68;30.02;101584.13;4974113;28;20049;-62
2023/10/02 12:19:10;;;;;;;16.92;6.88;;;;;;;37.91;29.34;101575.03;4975233;28;20054;-62
2023/10/02 12:21:36;;;;;;;17.17;8.27;;;;;;;37.84;29.64;101568.88;4975440;28;20035;-63
2023/10/02 12:24:07;;;;;;;21.67;9.77;;;;;;;37.72;30.05;101562.81;4957710;28;20039;-63
2023/10/02 12:26:32;;;;;;;23.65;8.93;;;;;;;37.54;30.84;101566.31;4973896;28;20030;-63
2023/10/02 12:29:00;;;;;;;20.75;8.25;;;;;;;37.47;30.32;101566.66;4973948;28;20111;-63
2023/10/02 12:31:26;;;;;;;19.98;7.75;;;;;;;37.26;30.66;101554.75;4974935;28;20122;-63
2023/10/02 12:33:52;;;;;;;17.50;8.25;;;;;;;37.13;30.84;101557.34;4974014;28;20071;-63
2023/10/02 12:36:20;;;;;;;19.48;7.88;;;;;;;36.94;30.75;101553.47;4958063;28;20118;-63
2023/10/02 12:38:46;;;;;;;17.50;8.00;;;;;;;36.85;31.22;101553.28;4957523;28;20495;-63
2023/10/02 12:41:21;;;;;;;20.80;8.05;;;;;;;36.84;30.66;101546.00;4974940;28;20426;-63
2023/10/02 12:43:58;;;;;;;19.98;8.60;;;;;;;36.71;31.63;101538.25;4973700;28;20061;-63
2023/10/02 12:46:30;;;;;;;19.45;7.97;;;;;;;36.59;31.73;101543.31;4958707;28;20038;-63
2023/10/02 12:49:01;;;;;;;18.52;8.65;;;;;;;36.48;31.54;101536.06;4973494;28;20142;-62